createdAt,value
2018-09-02T00:00:33.912Z,17.55
2018-09-02T00:03:04.445Z,17.55
2018-09-02T00:05:33.654Z,17.53
2018-09-02T00:08:02.768Z,17.57
2018-09-02T00:10:34.029Z,17.57
2018-09-02T00:13:05.026Z,17.65
2018-09-02T00:15:34.479Z,17.76
2018-09-02T00:18:04.252Z,17.76
2018-09-02T00:20:33.993Z,17.32
2018-09-02T00:23:03.079Z,17.10
2018-09-02T00:25:32.395Z,17.00
2018-09-02T00:28:02.821Z,17.07
2018-09-02T00:30:31.798Z,17.40
2018-09-02T00:33:00.760Z,17.50
2018-09-02T00:35:29.776Z,17.34
2018-09-02T00:37:59.182Z,16.94
2018-09-02T00:40:28.130Z,16.19
2018-09-02T00:42:57.072Z,15.85
2018-09-02T00:45:26.142Z,15.59
2018-09-02T00:47:55.095Z,15.48
2018-09-02T00:50:24.028Z,15.37
2018-09-02T00:52:53.089Z,15.29
2018-09-02T00:55:22.185Z,15.33
2018-09-02T00:57:59.920Z,15.38
2018-09-02T01:00:28.895Z,15.38
2018-09-02T01:02:57.860Z,15.30
2018-09-02T01:05:27.195Z,15.22
2018-09-02T01:07:57.702Z,15.24
2018-09-02T01:10:28.762Z,15.30
2018-09-02T01:12:58.544Z,15.56
2018-09-02T01:15:28.547Z,15.90
2018-09-02T01:17:58.271Z,16.62
2018-09-02T01:20:28.789Z,16.80
2018-09-02T01:25:51.137Z,16.59
2018-09-02T01:28:20.081Z,16.38
2018-09-02T01:30:49.016Z,16.11
2018-09-02T01:33:18.019Z,15.95
2018-09-02T01:35:47.191Z,15.89
2018-09-02T01:38:25.719Z,15.99
2018-09-02T01:40:56.347Z,16.49
2018-09-02T01:43:27.067Z,16.77
2018-09-02T01:45:56.173Z,16.84
2018-09-02T01:48:25.148Z,16.92
2018-09-02T01:50:54.096Z,17.00
2018-09-02T01:53:23.111Z,17.02
2018-09-02T01:55:52.173Z,17.09
2018-09-02T01:58:21.172Z,17.05
2018-09-02T02:00:53.538Z,16.77
2018-09-02T02:20:22.143Z,15.46
2018-09-02T02:22:51.183Z,15.28
2018-09-02T02:25:20.121Z,15.30
2018-09-02T02:27:49.088Z,15.22
2018-09-02T02:30:18.359Z,15.14
2018-09-02T02:32:47.618Z,15.01
2018-09-02T02:35:19.487Z,15.01
2018-09-02T02:37:48.611Z,14.99
2018-09-02T02:40:19.779Z,15.09
2018-09-02T02:42:48.885Z,15.13
2018-09-02T02:45:20.138Z,15.11
2018-09-02T02:47:52.131Z,15.19
2018-09-02T02:50:21.081Z,15.30
2018-09-02T02:52:55.015Z,15.44
2018-09-02T02:55:24.839Z,15.42
2018-09-02T02:58:04.491Z,15.41
2018-09-02T03:00:34.447Z,15.45
2018-09-02T03:03:05.373Z,15.65
2018-09-02T03:05:34.955Z,15.70
2018-09-02T03:08:11.383Z,15.70
2018-09-02T03:10:42.600Z,15.71
2018-09-02T03:13:13.534Z,15.76
2018-09-02T03:15:47.938Z,15.74
2018-09-02T03:18:17.054Z,15.76
2018-09-02T03:20:46.992Z,15.74
2018-09-02T03:23:17.089Z,15.68
2018-09-02T03:25:46.296Z,15.71
2018-09-02T03:28:15.285Z,15.75
2018-09-02T03:30:44.353Z,15.72
2018-09-02T03:33:13.299Z,15.62
2018-09-02T03:35:46.364Z,15.47
2018-09-02T03:38:15.336Z,15.50
2018-09-02T03:40:44.427Z,15.61
2018-09-02T03:43:13.412Z,15.79
2018-09-02T03:45:42.556Z,15.59
2018-09-02T03:48:11.559Z,15.39
2018-09-02T03:50:41.172Z,15.87
2018-09-02T03:53:10.345Z,15.66
2018-09-02T03:55:39.711Z,15.47
2018-09-02T03:58:08.686Z,16.23
2018-09-02T04:00:37.744Z,16.40
2018-09-02T04:16:59.699Z,14.86
2018-09-02T04:19:28.602Z,14.79
2018-09-02T04:21:57.478Z,14.69
2018-09-02T04:24:26.493Z,14.72
2018-09-02T04:26:55.764Z,14.76
2018-09-02T04:29:24.699Z,14.75
2018-09-02T04:31:53.629Z,14.71
2018-09-02T04:34:29.341Z,14.74
2018-09-02T04:36:58.394Z,15.03
2018-09-02T04:39:27.339Z,15.25
2018-09-02T04:41:56.391Z,15.43
2018-09-02T04:44:25.450Z,15.28
2018-09-02T04:46:55.067Z,15.11
2018-09-02T04:49:25.070Z,15.06
2018-09-02T04:51:54.112Z,15.08
2018-09-02T04:54:23.169Z,15.08
2018-09-02T04:56:52.083Z,15.02
2018-09-02T04:59:21.139Z,15.03
2018-09-02T05:01:50.160Z,15.05
2018-09-02T05:04:19.086Z,15.17
2018-09-02T05:06:49.162Z,15.37
2018-09-02T05:09:18.540Z,15.71
2018-09-02T05:11:47.664Z,16.03
2018-09-02T05:14:16.713Z,16.33
2018-09-02T05:16:48.160Z,16.68
2018-09-02T05:19:17.147Z,17.04
2018-09-02T05:21:46.247Z,17.36
2018-09-02T05:24:15.463Z,17.59
2018-09-02T05:26:44.423Z,17.81
2018-09-02T05:29:13.407Z,17.91
2018-09-02T05:31:42.363Z,17.91
2018-09-02T05:34:11.363Z,17.97
2018-09-02T05:36:40.408Z,18.10
2018-09-02T05:39:10.803Z,18.08
2018-09-02T05:41:40.082Z,17.99
2018-09-02T05:44:10.160Z,17.79
2018-09-02T05:46:39.726Z,17.61
2018-09-02T05:49:08.998Z,17.43
2018-09-02T05:51:37.949Z,17.41
2018-09-02T05:54:06.488Z,17.49
2018-09-02T05:56:35.513Z,17.78
2018-09-02T05:59:04.531Z,18.23
2018-09-02T06:01:33.538Z,18.39
2018-09-02T06:04:02.655Z,18.30
2018-09-02T06:06:31.691Z,18.09
2018-09-02T06:09:00.749Z,18.17
2018-09-02T06:11:29.757Z,18.84
2018-09-02T06:13:58.702Z,19.50
2018-09-02T06:16:28.800Z,19.78
2018-09-02T06:18:57.836Z,19.73
2018-09-02T06:21:27.031Z,20.00
2018-09-02T06:23:57.512Z,20.72
2018-09-02T06:26:26.582Z,21.29
2018-09-02T06:28:55.651Z,21.72
2018-09-02T06:31:24.963Z,21.60
2018-09-02T06:33:54.057Z,21.33
2018-09-02T06:36:24.743Z,21.36
2018-09-02T06:38:53.698Z,21.71
2018-09-02T06:41:22.678Z,21.75
2018-09-02T06:43:51.639Z,22.12
2018-09-02T06:46:23.545Z,22.52
2018-09-02T06:48:53.082Z,22.63
2018-09-02T06:51:22.021Z,22.39
2018-09-02T06:53:50.982Z,22.70
2018-09-02T06:56:19.942Z,22.39
2018-09-02T06:58:49.054Z,22.44
2018-09-02T07:01:19.275Z,22.11
2018-09-02T07:03:48.399Z,22.26
2018-09-02T07:06:17.406Z,21.91
2018-09-02T07:08:46.524Z,21.44
2018-09-02T07:11:15.523Z,21.45
2018-09-02T07:13:44.550Z,21.54
2018-09-02T07:16:13.577Z,21.41
2018-09-02T07:18:42.502Z,21.81
2018-09-02T07:21:11.537Z,21.82
2018-09-02T07:23:40.504Z,21.84
2018-09-02T07:26:10.182Z,22.48
2018-09-02T07:28:39.972Z,22.15
2018-09-02T07:31:22.443Z,22.17
2018-09-02T07:33:51.811Z,22.54
2018-09-02T07:36:20.980Z,23.00
2018-09-02T07:38:50.056Z,23.14
2018-09-02T07:41:19.263Z,23.89
2018-09-02T07:43:48.515Z,23.65
2018-09-02T07:46:17.561Z,24.02
2018-09-02T07:48:46.713Z,23.76
2018-09-02T07:51:16.946Z,23.65
2018-09-02T07:53:45.900Z,23.65
2018-09-02T07:56:15.205Z,24.28
2018-09-02T07:58:44.374Z,25.14
2018-09-02T08:01:13.365Z,24.47
2018-09-02T08:03:42.644Z,24.78
2018-09-02T08:06:11.669Z,25.14
2018-09-02T08:08:40.754Z,24.60
2018-09-02T08:11:09.788Z,23.84
2018-09-02T08:13:38.804Z,22.96
2018-09-02T08:16:08.977Z,22.95
2018-09-02T08:18:38.356Z,22.14
2018-09-02T08:21:09.600Z,22.30
2018-09-02T08:24:00.976Z,23.19
2018-09-02T08:26:29.901Z,22.70
2018-09-02T08:28:58.974Z,22.43
2018-09-02T08:31:30.538Z,23.08
2018-09-02T08:55:26.740Z,25.38
2018-09-02T08:57:55.749Z,24.58
2018-09-02T09:00:24.848Z,24.34
2018-09-02T09:02:54.478Z,23.39
2018-09-02T09:05:23.440Z,22.79
2018-09-02T09:07:52.668Z,23.10
2018-09-02T09:10:21.515Z,24.23
2018-09-02T09:12:50.411Z,24.37
2018-09-02T09:15:20.278Z,23.69
2018-09-02T09:17:49.216Z,22.98
2018-09-02T09:20:21.071Z,23.14
2018-09-02T09:22:50.101Z,23.37
2018-09-02T09:25:19.498Z,23.17
2018-09-02T09:27:48.491Z,23.60
2018-09-02T09:30:17.493Z,23.79
2018-09-02T09:32:46.401Z,23.26
2018-09-02T09:35:18.582Z,23.56
2018-09-02T09:37:47.844Z,23.73
2018-09-02T09:40:19.807Z,23.59
2018-09-02T09:42:48.749Z,23.11
2018-09-02T09:45:17.669Z,22.52
2018-09-02T09:47:46.629Z,22.01
2018-09-02T09:50:15.582Z,21.60
2018-09-02T09:53:00.019Z,21.56
2018-09-02T09:55:29.115Z,21.64
2018-09-02T09:57:58.491Z,21.74
2018-09-02T10:00:32.840Z,21.91
2018-09-02T10:03:03.309Z,21.88
2018-09-02T10:05:32.480Z,21.99
2018-09-02T10:08:01.581Z,22.17
2018-09-02T10:10:30.735Z,22.29
2018-09-02T10:12:59.934Z,22.26
2018-09-02T10:15:29.023Z,22.18
2018-09-02T10:17:58.305Z,22.13
2018-09-02T10:20:27.340Z,22.06
2018-09-02T10:22:56.706Z,22.27
2018-09-02T10:25:25.821Z,22.27
2018-09-02T10:27:55.012Z,22.44
2018-09-02T10:30:24.092Z,22.48
2018-09-02T10:32:53.108Z,22.54
2018-09-02T10:35:22.702Z,22.24
2018-09-02T10:37:52.844Z,22.37
2018-09-02T10:40:25.699Z,22.52
2018-09-02T10:42:54.633Z,22.36
2018-09-02T10:45:23.654Z,22.15
2018-09-02T10:47:53.589Z,21.97
2018-09-02T10:50:22.610Z,21.88
2018-09-02T10:52:53.274Z,21.88
2018-09-02T10:55:22.371Z,21.51
2018-09-02T10:57:52.002Z,21.43
2018-09-02T11:00:23.904Z,21.29
2018-09-02T11:02:52.813Z,21.12
2018-09-02T11:05:24.476Z,20.91
2018-09-02T11:07:53.572Z,20.78
2018-09-02T11:10:23.502Z,20.70
2018-09-02T11:12:52.451Z,20.62
2018-09-02T11:15:21.924Z,20.47
2018-09-02T11:17:51.618Z,20.38
2018-09-02T11:20:21.265Z,20.26
2018-09-02T11:22:50.692Z,20.09
2018-09-02T11:25:20.298Z,20.02
2018-09-02T11:27:49.792Z,19.95
2018-09-02T11:30:20.948Z,19.93
2018-09-02T11:32:50.687Z,19.74
2018-09-02T11:35:20.999Z,19.68
2018-09-02T11:37:50.439Z,19.62
2018-09-02T11:40:21.582Z,19.58
2018-09-02T11:42:51.175Z,19.51
2018-09-02T11:45:20.781Z,19.27
2018-09-02T11:47:50.462Z,18.81
2018-09-02T11:50:19.716Z,18.61
2018-09-02T11:52:49.096Z,18.56
2018-09-02T11:55:20.296Z,18.68
2018-09-02T11:57:50.090Z,18.66
2018-09-02T12:00:21.297Z,18.61
2018-09-02T12:02:51.045Z,18.65
2018-09-02T12:05:21.643Z,18.61
2018-09-02T12:07:51.544Z,18.39
2018-09-02T12:10:21.890Z,18.34
2018-09-02T12:12:51.081Z,18.39
2018-09-02T12:15:21.491Z,18.38
2018-09-02T12:17:51.431Z,18.34
2018-09-02T12:20:22.607Z,18.27
2018-09-02T12:22:52.397Z,18.35
2018-09-02T12:25:28.678Z,18.39
2018-09-02T12:27:57.863Z,18.42
2018-09-02T12:30:26.899Z,18.44
2018-09-02T12:32:56.103Z,18.48
2018-09-02T12:35:25.087Z,18.63
2018-09-02T12:37:54.427Z,18.81
2018-09-02T12:40:23.366Z,18.97
2018-09-02T12:42:53.367Z,19.10
2018-09-02T12:45:23.003Z,19.19
2018-09-02T12:47:52.102Z,19.20
2018-09-02T12:50:21.075Z,19.29
2018-09-02T12:52:50.121Z,19.29
2018-09-02T12:55:19.732Z,19.20
2018-09-02T12:57:48.729Z,19.17
2018-09-02T13:00:20.420Z,19.06
2018-09-02T13:02:49.428Z,19.10
2018-09-02T13:05:19.269Z,19.02
2018-09-02T13:07:48.396Z,19.20
2018-09-02T13:10:20.927Z,19.14
2018-09-02T13:12:50.775Z,18.90
2018-09-02T13:15:19.754Z,18.61
2018-09-02T13:17:48.792Z,18.31
2018-09-02T13:20:19.607Z,18.17
2018-09-02T13:22:48.646Z,18.13
2018-09-02T13:25:18.355Z,18.04
2018-09-02T13:27:47.285Z,17.88
2018-09-02T13:30:18.420Z,17.79
2018-09-02T13:32:48.351Z,17.69
2018-09-02T13:35:19.031Z,17.65
2018-09-02T13:37:47.957Z,17.56
2018-09-02T13:40:19.209Z,17.59
2018-09-02T13:42:48.452Z,17.54
2018-09-02T13:45:17.554Z,17.52
2018-09-02T13:47:46.544Z,17.63
2018-09-02T13:50:16.505Z,17.75
2018-09-02T13:52:46.617Z,17.82
2018-09-02T13:55:17.587Z,17.91
2018-09-02T13:57:48.235Z,17.96
2018-09-02T14:00:20.651Z,18.03
2018-09-02T14:02:49.601Z,18.18
2018-09-02T14:05:21.879Z,18.37
2018-09-02T14:07:52.544Z,18.58
2018-09-02T14:10:23.261Z,18.74
2018-09-02T14:12:52.327Z,18.81
2018-09-02T14:15:23.153Z,18.87
2018-09-02T14:17:52.254Z,18.87
2018-09-02T14:20:24.692Z,18.99
2018-09-02T14:22:57.088Z,19.05
2018-09-02T14:25:27.947Z,19.33
2018-09-02T14:27:59.410Z,19.65
2018-09-02T14:30:28.620Z,19.76
2018-09-02T14:32:58.010Z,19.81
2018-09-02T14:35:33.930Z,19.96
2018-09-02T14:38:03.523Z,20.04
2018-09-02T14:40:35.092Z,20.16
2018-09-02T14:43:04.484Z,20.37
2018-09-02T14:45:34.990Z,20.32
2018-09-02T14:48:04.291Z,20.23
2018-09-02T14:50:34.559Z,20.24
2018-09-02T14:53:07.544Z,20.23
2018-09-02T14:55:36.629Z,19.97
2018-09-02T14:58:06.894Z,19.86
2018-09-02T15:00:36.574Z,19.86
2018-09-02T15:03:06.224Z,19.81
2018-09-02T15:08:46.135Z,19.80
2018-09-02T15:11:15.299Z,19.83
2018-09-02T15:13:44.995Z,19.71
2018-09-02T15:16:14.365Z,19.70
2018-09-02T15:18:43.997Z,19.71
2018-09-02T15:21:14.003Z,19.70
2018-09-02T15:23:43.509Z,19.76
2018-09-02T15:26:12.947Z,19.86
2018-09-02T15:28:42.237Z,19.68
2018-09-02T15:31:11.596Z,19.87
2018-09-02T15:33:40.748Z,19.98
2018-09-02T15:36:09.944Z,19.84
2018-09-02T15:38:40.009Z,19.64
2018-09-02T15:41:09.019Z,19.50
2018-09-02T15:43:37.997Z,19.43
2018-09-02T15:46:07.230Z,19.37
2018-09-02T15:48:36.330Z,19.29
2018-09-02T15:51:05.459Z,19.18
2018-09-02T15:53:37.923Z,19.13
2018-09-02T15:56:07.400Z,19.07
2018-09-02T15:58:36.466Z,19.00
2018-09-02T16:01:05.902Z,18.98
2018-09-02T16:03:34.914Z,19.06
2018-09-02T16:06:03.916Z,18.99
2018-09-02T16:08:32.831Z,18.88
2018-09-02T16:11:01.998Z,18.83
2018-09-02T16:13:31.003Z,18.82
2018-09-02T16:16:00.830Z,18.88
2018-09-02T16:18:29.797Z,19.05
2018-09-02T16:20:58.855Z,19.08
2018-09-02T16:23:27.800Z,19.12
2018-09-02T16:25:56.987Z,19.08
2018-09-02T16:28:26.026Z,19.02
2018-09-02T16:31:01.087Z,18.98
2018-09-02T16:33:30.042Z,18.96
2018-09-02T16:35:59.144Z,18.95
2018-09-02T16:38:28.063Z,18.97
2018-09-02T16:40:57.256Z,19.08
2018-09-02T16:43:26.180Z,19.11
2018-09-02T16:45:55.145Z,19.05
2018-09-02T16:48:25.243Z,19.04
2018-09-02T16:50:54.196Z,19.06
2018-09-02T16:53:23.157Z,18.99
2018-09-02T16:55:52.278Z,18.96
2018-09-02T16:58:22.388Z,18.93
2018-09-02T17:00:51.377Z,18.83
2018-09-02T17:03:21.234Z,18.68
2018-09-02T17:05:51.130Z,18.55
2018-09-02T17:08:20.563Z,18.42
2018-09-02T17:10:50.052Z,18.34
2018-09-02T17:13:19.245Z,18.24
2018-09-02T17:15:48.210Z,18.16
2018-09-02T17:18:17.278Z,18.09
2018-09-02T17:20:49.279Z,18.39
2018-09-02T17:23:18.577Z,18.46
2018-09-02T17:25:48.207Z,18.28
2018-09-02T17:28:17.620Z,18.09
2018-09-02T17:30:47.063Z,18.07
2018-09-02T17:33:16.906Z,18.00
2018-09-02T17:35:46.467Z,18.09
2018-09-02T17:38:15.823Z,18.57
2018-09-02T17:40:45.119Z,18.58
2018-09-02T17:43:14.566Z,18.67
2018-09-02T17:45:44.707Z,18.64
2018-09-02T17:48:13.817Z,18.66
2018-09-02T17:50:43.008Z,18.59
2018-09-02T17:53:11.996Z,18.46
2018-09-02T17:55:40.947Z,18.36
2018-09-02T17:58:09.924Z,18.17
2018-09-02T18:00:47.581Z,18.04
2018-09-02T18:03:16.818Z,17.92
2018-09-02T18:05:46.111Z,17.92
2018-09-02T18:08:15.506Z,18.22
2018-09-02T18:10:51.480Z,18.29
2018-09-02T18:13:20.431Z,18.32
2018-09-02T18:15:49.445Z,18.27
2018-09-02T18:18:18.404Z,18.39
2018-09-02T18:20:47.871Z,18.47
2018-09-02T18:23:17.235Z,18.48
2018-09-02T18:25:46.867Z,18.39
2018-09-02T18:28:20.782Z,18.33
2018-09-02T18:30:50.186Z,18.30
2018-09-02T18:33:19.238Z,18.28
2018-09-02T18:35:48.303Z,18.23
2018-09-02T18:38:17.391Z,18.10
2018-09-02T18:40:48.220Z,18.12
2018-09-02T18:43:20.608Z,18.16
2018-09-02T18:45:50.721Z,18.33
2018-09-02T18:48:20.059Z,18.33
2018-09-02T18:50:49.386Z,18.35
2018-09-02T18:53:18.578Z,18.34
2018-09-02T18:55:47.731Z,18.33
2018-09-02T18:58:17.124Z,18.27
2018-09-02T19:00:46.309Z,18.21
2018-09-02T19:03:15.724Z,18.19
2018-09-02T19:05:44.984Z,18.02
2018-09-02T19:08:14.754Z,17.77
2018-09-02T19:10:43.978Z,17.50
2018-09-02T19:13:13.095Z,17.17
2018-09-02T19:15:42.137Z,16.89
2018-09-02T19:18:11.617Z,16.66
2018-09-02T19:20:41.208Z,16.50
2018-09-02T19:23:10.586Z,16.63
2018-09-02T19:25:39.804Z,17.19
2018-09-02T19:28:09.172Z,17.53
2018-09-02T19:30:38.526Z,17.44
2018-09-02T19:33:07.829Z,17.21
2018-09-02T19:35:37.153Z,16.87
2018-09-02T19:38:06.380Z,16.98
2018-09-02T19:40:35.754Z,17.01
2018-09-02T19:43:05.807Z,17.25
2018-09-02T19:45:35.943Z,17.59
2018-09-02T19:48:05.257Z,17.66
2018-09-02T19:50:37.249Z,17.68
2018-09-02T19:53:06.577Z,17.76
2018-09-02T19:55:36.820Z,17.79
2018-09-02T19:58:07.760Z,17.82
2018-09-02T20:00:37.176Z,17.64
2018-09-02T20:03:06.544Z,17.54
2018-09-02T20:05:36.693Z,17.37
2018-09-02T20:08:06.128Z,17.01
2018-09-02T20:10:35.622Z,16.67
2018-09-02T20:13:04.926Z,16.39
2018-09-02T20:15:34.231Z,16.24
2018-09-02T20:18:03.407Z,16.03
2018-09-02T20:20:32.789Z,15.89
2018-09-02T20:23:04.925Z,16.05
2018-09-02T20:25:34.174Z,16.53
2018-09-02T20:28:04.199Z,16.81
2018-09-02T20:30:33.267Z,16.97
2018-09-02T20:33:03.138Z,17.04
2018-09-02T20:35:32.215Z,17.10
2018-09-02T20:38:01.219Z,16.90
2018-09-02T20:40:31.720Z,16.59
2018-09-02T20:43:01.916Z,16.39
2018-09-02T20:45:31.256Z,16.31
2018-09-02T20:48:01.512Z,16.05
2018-09-02T20:50:30.679Z,15.77
2018-09-02T20:52:59.892Z,15.58
2018-09-02T20:55:29.128Z,15.50
2018-09-02T20:57:58.399Z,15.48
2018-09-02T21:00:27.747Z,15.37
2018-09-02T21:02:56.989Z,15.35
2018-09-02T21:05:26.255Z,15.37
2018-09-02T21:07:55.351Z,15.49
2018-09-02T21:10:24.449Z,15.38
2018-09-02T21:12:53.779Z,15.31
2018-09-02T21:15:23.536Z,15.33
2018-09-02T21:17:52.615Z,15.67
2018-09-02T21:20:22.917Z,15.57
2018-09-02T21:22:51.984Z,15.53
2018-09-02T21:25:20.963Z,15.43
2018-09-02T21:27:50.101Z,15.35
2018-09-02T21:30:21.560Z,15.17
2018-09-02T21:32:50.717Z,14.99
2018-09-02T21:35:21.858Z,14.87
2018-09-02T21:37:50.890Z,14.90
2018-09-02T21:40:22.083Z,14.90
2018-09-02T21:42:51.203Z,14.99
2018-09-02T21:45:23.157Z,15.09
2018-09-02T21:47:52.443Z,15.32
2018-09-02T21:50:22.923Z,15.40
2018-09-02T21:52:59.495Z,15.47
2018-09-02T21:55:28.700Z,15.37
2018-09-02T21:57:58.113Z,15.39
2018-09-02T22:00:42.813Z,15.23
2018-09-02T22:03:14.175Z,15.19
2018-09-02T22:05:44.507Z,15.36
2018-09-02T22:08:13.880Z,15.34
2018-09-02T22:10:43.260Z,15.34
2018-09-02T22:13:12.652Z,15.44
2018-09-02T22:15:42.841Z,15.34
2018-09-02T22:18:12.268Z,15.44
2018-09-02T22:20:43.098Z,15.87
2018-09-02T22:23:12.633Z,15.90
2018-09-02T22:25:42.289Z,15.94
2018-09-02T22:28:11.820Z,15.79
2018-09-02T22:30:41.502Z,15.66
2018-09-02T22:33:10.953Z,15.64
2018-09-02T22:35:40.339Z,15.57
2018-09-02T22:38:09.690Z,15.51
2018-09-02T22:40:38.942Z,15.38
2018-09-02T22:43:08.427Z,15.40
2018-09-02T22:45:44.303Z,15.56
2018-09-02T22:48:14.222Z,15.82
2018-09-02T23:00:52.229Z,15.16
2018-09-02T23:03:21.504Z,15.46
2018-09-02T23:05:50.701Z,15.70
2018-09-02T23:08:19.900Z,15.73
2018-09-02T23:10:49.157Z,15.57
2018-09-02T23:13:18.292Z,15.30
2018-09-02T23:15:47.530Z,15.16
2018-09-02T23:18:16.799Z,15.37
2018-09-02T23:20:46.618Z,15.32
2018-09-02T23:23:15.991Z,15.23
2018-09-02T23:25:45.480Z,15.08
2018-09-02T23:28:14.685Z,15.07
2018-09-02T23:30:49.197Z,14.85
2018-09-02T23:33:18.498Z,15.38
2018-09-02T23:35:47.784Z,15.65
2018-09-02T23:38:17.000Z,15.64
2018-09-02T23:40:46.275Z,15.56
2018-09-02T23:43:15.599Z,15.34
2018-09-02T23:45:44.972Z,15.13
2018-09-02T23:48:14.269Z,14.97
2018-09-02T23:50:44.615Z,14.84
2018-09-02T23:53:13.946Z,15.34
2018-09-02T23:55:43.240Z,15.55
2018-09-02T23:58:12.590Z,15.54
